createdAt,value
2017-07-03T00:00:03.679Z,1015.87
2017-07-03T00:00:29.796Z,1015.88
2017-07-03T00:00:55.887Z,1015.88
2017-07-03T00:01:22.024Z,1015.87
2017-07-03T00:01:48.145Z,1015.9
2017-07-03T00:02:14.284Z,1015.86
2017-07-03T00:02:40.442Z,1015.89
2017-07-03T00:03:06.596Z,1015.87
2017-07-03T00:03:32.722Z,1015.87
2017-07-03T00:03:58.815Z,1015.89
2017-07-03T00:04:24.905Z,1015.87
2017-07-03T00:04:51.042Z,1015.9
2017-07-03T00:05:17.138Z,1015.88
2017-07-03T00:05:43.251Z,1015.89
2017-07-03T00:06:09.357Z,1015.87
2017-07-03T00:06:35.510Z,1015.88
2017-07-03T00:07:01.622Z,1015.87
2017-07-03T00:07:27.726Z,1015.86
2017-07-03T00:07:53.832Z,1015.85
2017-07-03T00:08:19.994Z,1015.86
2017-07-03T00:08:46.120Z,1015.83
2017-07-03T00:09:12.243Z,1015.83
2017-07-03T00:09:38.427Z,1015.86
2017-07-03T00:10:04.556Z,1015.85
2017-07-03T00:10:30.671Z,1015.85
2017-07-03T00:10:56.775Z,1015.86
2017-07-03T00:11:22.934Z,1015.89
2017-07-03T00:11:49.069Z,1015.9
2017-07-03T00:12:15.220Z,1015.87
2017-07-03T00:12:41.352Z,1015.88
2017-07-03T00:13:07.468Z,1015.88
2017-07-03T00:13:33.636Z,1015.92
2017-07-03T00:13:59.823Z,1015.92
2017-07-03T00:14:25.916Z,1015.91
2017-07-03T00:14:52.049Z,1015.91
2017-07-03T00:15:18.160Z,1015.93
2017-07-03T00:15:44.285Z,1015.91
2017-07-03T00:16:10.419Z,1015.93
2017-07-03T00:16:36.531Z,1015.9
2017-07-03T00:17:02.627Z,1015.93
2017-07-03T00:17:28.734Z,1015.94
2017-07-03T00:17:54.849Z,1015.9
2017-07-03T00:18:20.940Z,1015.94
2017-07-03T00:18:47.104Z,1015.96
2017-07-03T00:19:13.253Z,1015.99
2017-07-03T00:19:39.341Z,1015.98
2017-07-03T00:20:05.445Z,1015.98
2017-07-03T00:20:31.590Z,1015.99
2017-07-03T00:20:57.723Z,1015.97
2017-07-03T00:21:23.844Z,1015.93
2017-07-03T00:21:49.931Z,1015.99
2017-07-03T00:22:16.040Z,1015.97
2017-07-03T00:22:42.165Z,1015.97
2017-07-03T00:23:08.277Z,1016.01
2017-07-03T00:23:34.439Z,1016.01
2017-07-03T00:24:00.566Z,1016.03
2017-07-03T00:24:26.704Z,1016.01
2017-07-03T00:24:52.837Z,1016.01
2017-07-03T00:25:18.971Z,1016.02
2017-07-03T00:25:45.138Z,1016
2017-07-03T00:26:11.262Z,1016.02
2017-07-03T00:26:37.401Z,1016.03
2017-07-03T00:27:03.584Z,1016.05
2017-07-03T00:27:29.710Z,1015.98
2017-07-03T00:27:55.827Z,1016.03
2017-07-03T00:28:21.954Z,1016.02
2017-07-03T00:28:48.158Z,1016.04
2017-07-03T00:29:14.301Z,1016.05
2017-07-03T00:29:40.445Z,1016.03
2017-07-03T00:30:06.605Z,1016.03
2017-07-03T00:30:32.696Z,1016.06
2017-07-03T00:30:58.815Z,1016.06
2017-07-03T00:31:24.941Z,1016.01
2017-07-03T00:31:51.068Z,1016.02
2017-07-03T00:32:17.203Z,1016.03
2017-07-03T00:32:43.313Z,1016.05
2017-07-03T00:33:09.411Z,1016.05
2017-07-03T00:33:35.544Z,1016.05
2017-07-03T00:34:01.659Z,1016.06
2017-07-03T00:34:27.754Z,1016.03
2017-07-03T00:34:53.941Z,1016.06
2017-07-03T00:35:20.062Z,1016.01
2017-07-03T00:35:46.154Z,1016.06
2017-07-03T00:36:12.318Z,1016.1
2017-07-03T00:36:38.441Z,1016.12
2017-07-03T00:37:04.547Z,1016.11
2017-07-03T00:37:30.657Z,1016.14
2017-07-03T00:37:56.826Z,1016.12
2017-07-03T00:38:23.042Z,1016.13
2017-07-03T00:38:49.161Z,1016.17
2017-07-03T00:39:15.278Z,1016.15
2017-07-03T00:39:41.442Z,1016.17
2017-07-03T00:40:07.563Z,1016.19
2017-07-03T00:40:33.653Z,1016.16
2017-07-03T00:40:59.814Z,1016.16
2017-07-03T00:41:25.915Z,1016.15
2017-07-03T00:41:52.004Z,1016.18
2017-07-03T00:42:18.109Z,1016.18
2017-07-03T00:42:44.243Z,1016.13
2017-07-03T00:43:10.401Z,1016.1
2017-07-03T00:43:36.555Z,1016.15
2017-07-03T00:44:02.719Z,1016.13
2017-07-03T00:44:28.832Z,1016.16
2017-07-03T00:44:54.957Z,1016.13
2017-07-03T00:45:21.091Z,1016.14
2017-07-03T00:45:47.206Z,1016.15
2017-07-03T00:46:13.297Z,1016.18
2017-07-03T00:46:39.461Z,1016.15
2017-07-03T00:47:05.558Z,1016.17
2017-07-03T00:47:31.648Z,1016.13
2017-07-03T00:47:57.751Z,1016.16
2017-07-03T00:48:23.871Z,1016.19
2017-07-03T00:48:50.003Z,1016.17
2017-07-03T00:49:16.097Z,1016.14
2017-07-03T00:49:42.235Z,1016.14
2017-07-03T00:50:08.370Z,1016.14
2017-07-03T00:50:34.521Z,1016.16
2017-07-03T00:51:00.609Z,1016.19
2017-07-03T00:51:26.713Z,1016.17
2017-07-03T00:51:52.815Z,1016.13
2017-07-03T00:52:18.904Z,1016.15
2017-07-03T00:52:45.083Z,1016.17
2017-07-03T00:53:11.216Z,1016.18
2017-07-03T00:53:37.336Z,1016.2
2017-07-03T00:54:03.511Z,1016.13
2017-07-03T00:54:29.650Z,1016.17
2017-07-03T00:54:55.814Z,1016.2
2017-07-03T00:55:21.913Z,1016.17
2017-07-03T00:55:48.002Z,1016.18
2017-07-03T00:56:14.105Z,1016.2
2017-07-03T00:56:40.210Z,1016.17
2017-07-03T00:57:06.342Z,1016.21
2017-07-03T00:57:32.517Z,1016.22
2017-07-03T00:57:58.679Z,1016.16
2017-07-03T00:58:24.792Z,1016.16
2017-07-03T00:58:50.937Z,1016.16
2017-07-03T00:59:17.061Z,1016.18
2017-07-03T00:59:43.164Z,1016.17
2017-07-03T01:00:09.266Z,1016.19
2017-07-03T01:00:35.354Z,1016.17
2017-07-03T01:01:01.505Z,1016.18
2017-07-03T01:01:27.612Z,1016.17
2017-07-03T01:01:53.704Z,1016.18
2017-07-03T01:02:19.801Z,1016.23
2017-07-03T01:02:45.905Z,1016.2
2017-07-03T01:03:12.022Z,1016.22
2017-07-03T01:03:38.209Z,1016.2
2017-07-03T01:04:04.346Z,1016.16
2017-07-03T01:04:30.442Z,1016.2
2017-07-03T01:04:56.546Z,1016.16
2017-07-03T01:05:22.635Z,1016.16
2017-07-03T01:05:48.807Z,1016.2
2017-07-03T01:06:14.912Z,1016.19
2017-07-03T01:06:41.002Z,1016.17
2017-07-03T01:07:07.115Z,1016.19
2017-07-03T01:07:33.250Z,1016.19
2017-07-03T01:07:59.372Z,1016.18
2017-07-03T01:08:25.535Z,1016.18
2017-07-03T01:08:51.665Z,1016.22
2017-07-03T01:09:17.793Z,1016.22
2017-07-03T01:09:43.930Z,1016.19
2017-07-03T01:10:10.085Z,1016.17
2017-07-03T01:10:36.202Z,1016.21
2017-07-03T01:11:02.339Z,1016.18
2017-07-03T01:11:28.489Z,1016.18
2017-07-03T01:11:54.626Z,1016.16
2017-07-03T01:12:20.730Z,1016.18
2017-07-03T01:12:46.830Z,1016.18
2017-07-03T01:13:12.942Z,1016.17
2017-07-03T01:13:39.044Z,1016.18
2017-07-03T01:14:05.203Z,1016.17
2017-07-03T01:14:31.313Z,1016.13
2017-07-03T01:14:57.410Z,1016.11
2017-07-03T01:15:23.515Z,1016.08
2017-07-03T01:15:49.630Z,1016.16
2017-07-03T01:16:15.731Z,1016.11
2017-07-03T01:16:41.848Z,1016.12
2017-07-03T01:17:07.951Z,1016.14
2017-07-03T01:17:34.055Z,1016.1
2017-07-03T01:18:00.188Z,1016.13
2017-07-03T01:18:26.360Z,1016.11
2017-07-03T01:18:52.519Z,1016.14
2017-07-03T01:19:18.664Z,1016.12
2017-07-03T01:19:44.827Z,1016.15
2017-07-03T01:20:10.988Z,1016.1
2017-07-03T01:20:37.110Z,1016.12
2017-07-03T01:21:03.200Z,1016.14
2017-07-03T01:21:29.359Z,1016.11
2017-07-03T01:21:55.458Z,1016.14
2017-07-03T01:22:21.592Z,1016.14
2017-07-03T01:22:47.731Z,1016.13
2017-07-03T01:23:13.826Z,1016.13
2017-07-03T01:23:39.934Z,1016.12
2017-07-03T01:24:06.051Z,1016.15
2017-07-03T01:24:32.142Z,1016.15
2017-07-03T01:24:58.304Z,1016.14
2017-07-03T01:25:24.429Z,1016.12
2017-07-03T01:25:50.542Z,1016.08
2017-07-03T01:26:16.675Z,1016.12
2017-07-03T01:26:42.773Z,1016.11
2017-07-03T01:27:08.863Z,1016.14
2017-07-03T01:27:34.965Z,1016.11
2017-07-03T01:28:01.071Z,1016.11
2017-07-03T01:28:27.180Z,1016.11
2017-07-03T01:28:53.331Z,1016.08
2017-07-03T01:29:19.436Z,1016.09
2017-07-03T01:29:45.525Z,1016.08
2017-07-03T01:30:11.643Z,1016.08
2017-07-03T01:30:37.804Z,1016.05
2017-07-03T01:31:03.922Z,1016.04
2017-07-03T01:31:30.013Z,1016.04
2017-07-03T01:31:56.161Z,1016.01
2017-07-03T01:32:22.331Z,1016
2017-07-03T01:32:48.510Z,1016
2017-07-03T01:33:14.625Z,1016.02
2017-07-03T01:33:40.771Z,1015.98
2017-07-03T01:34:06.932Z,1015.98
2017-07-03T01:34:33.076Z,1015.98
2017-07-03T01:34:59.218Z,1015.98
2017-07-03T01:35:25.324Z,1015.94
2017-07-03T01:35:51.473Z,1015.94
2017-07-03T01:36:17.565Z,1015.95
2017-07-03T01:36:43.727Z,1015.96
2017-07-03T01:37:09.853Z,1015.97
2017-07-03T01:37:35.964Z,1015.98
2017-07-03T01:38:02.118Z,1016
2017-07-03T01:38:28.233Z,1016.01
2017-07-03T01:38:54.392Z,1016.03
2017-07-03T01:39:20.488Z,1016.03
2017-07-03T01:39:46.603Z,1016.02
2017-07-03T01:40:12.760Z,1016.03
2017-07-03T01:40:38.886Z,1016.03
2017-07-03T01:41:05.006Z,1016.03
2017-07-03T01:41:31.102Z,1015.98
2017-07-03T01:41:57.210Z,1015.98
2017-07-03T01:42:23.295Z,1016
2017-07-03T01:42:49.416Z,1015.99
2017-07-03T01:43:15.547Z,1016.01
2017-07-03T01:43:41.660Z,1016.03
2017-07-03T01:44:07.788Z,1016.01
2017-07-03T01:44:33.905Z,1015.95
2017-07-03T01:45:00.054Z,1015.96
2017-07-03T01:45:26.158Z,1015.97
2017-07-03T01:45:52.268Z,1015.95
2017-07-03T01:46:18.367Z,1015.96
2017-07-03T01:46:44.510Z,1015.98
2017-07-03T01:47:10.589Z,1015.96
2017-07-03T01:47:36.689Z,1015.95
2017-07-03T01:48:02.872Z,1015.98
2017-07-03T01:48:29.044Z,1015.97
2017-07-03T01:48:55.210Z,1015.92
2017-07-03T01:49:21.361Z,1015.91
2017-07-03T01:49:47.459Z,1015.93
2017-07-03T01:50:13.621Z,1015.88
2017-07-03T01:50:39.739Z,1015.9
2017-07-03T01:51:05.837Z,1015.9
2017-07-03T01:51:31.942Z,1015.87
2017-07-03T01:51:58.035Z,1015.87
2017-07-03T01:52:24.148Z,1015.86
2017-07-03T01:52:50.338Z,1015.86
2017-07-03T01:53:16.486Z,1015.83
2017-07-03T01:53:42.624Z,1015.86
2017-07-03T01:54:08.809Z,1015.85
2017-07-03T01:54:34.962Z,1015.83
2017-07-03T01:55:01.061Z,1015.8
2017-07-03T01:55:27.154Z,1015.81
2017-07-03T01:55:53.268Z,1015.8
2017-07-03T01:56:19.375Z,1015.82
2017-07-03T01:56:45.499Z,1015.8
2017-07-03T01:57:11.614Z,1015.81
2017-07-03T01:57:37.770Z,1015.83
2017-07-03T01:58:03.900Z,1015.82
2017-07-03T01:58:30.059Z,1015.8
2017-07-03T01:58:56.214Z,1015.85
2017-07-03T01:59:22.397Z,1015.81
2017-07-03T01:59:48.508Z,1015.8
2017-07-03T02:00:14.631Z,1015.87
2017-07-03T02:00:40.750Z,1015.85
2017-07-03T02:01:06.886Z,1015.82
2017-07-03T02:01:33.009Z,1015.87
2017-07-03T02:01:59.099Z,1015.86
2017-07-03T02:02:25.199Z,1015.88
2017-07-03T02:02:51.329Z,1015.9
2017-07-03T02:03:17.451Z,1015.88
2017-07-03T02:03:43.644Z,1015.88
2017-07-03T02:04:09.776Z,1015.87
2017-07-03T02:04:35.985Z,1015.89
2017-07-03T02:05:02.158Z,1015.89
2017-07-03T02:05:28.285Z,1015.89
2017-07-03T02:05:54.482Z,1015.91
2017-07-03T02:06:20.588Z,1015.89
2017-07-03T02:06:46.738Z,1015.89
2017-07-03T02:07:12.908Z,1015.93
2017-07-03T02:07:39.071Z,1015.91
2017-07-03T02:08:05.277Z,1015.9
2017-07-03T02:08:31.421Z,1015.93
2017-07-03T02:08:57.679Z,1015.88
2017-07-03T02:09:23.801Z,1015.91
2017-07-03T02:09:49.919Z,1015.88
2017-07-03T02:10:16.048Z,1015.95
2017-07-03T02:10:42.161Z,1015.92
2017-07-03T02:11:08.282Z,1015.9
2017-07-03T02:11:34.408Z,1015.92
2017-07-03T02:12:00.521Z,1015.92
2017-07-03T02:12:26.639Z,1015.89
2017-07-03T02:12:52.800Z,1015.92
2017-07-03T02:13:18.963Z,1015.88
2017-07-03T02:13:45.112Z,1015.89
2017-07-03T02:14:11.316Z,1015.88
2017-07-03T02:14:37.470Z,1015.86
2017-07-03T02:15:03.613Z,1015.85
2017-07-03T02:15:29.759Z,1015.86
2017-07-03T02:15:55.977Z,1015.87
2017-07-03T02:16:22.140Z,1015.82
2017-07-03T02:16:48.262Z,1015.86
2017-07-03T02:17:14.425Z,1015.86
2017-07-03T02:17:40.567Z,1015.88
2017-07-03T02:18:06.731Z,1015.85
2017-07-03T02:18:32.874Z,1015.85
2017-07-03T02:18:59.075Z,1015.86
2017-07-03T02:19:25.232Z,1015.84
2017-07-03T02:19:51.375Z,1015.82
2017-07-03T02:20:17.519Z,1015.87
2017-07-03T02:20:43.646Z,1015.86
2017-07-03T02:21:09.786Z,1015.8
2017-07-03T02:21:35.936Z,1015.83
2017-07-03T02:22:02.037Z,1015.85
2017-07-03T02:22:28.183Z,1015.83
2017-07-03T02:22:54.346Z,1015.82
2017-07-03T02:23:20.469Z,1015.82
2017-07-03T02:23:46.644Z,1015.84
2017-07-03T02:24:12.745Z,1015.81
2017-07-03T02:24:38.857Z,1015.82
2017-07-03T02:25:05.035Z,1015.82
2017-07-03T02:25:31.170Z,1015.81
2017-07-03T02:25:57.311Z,1015.86
2017-07-03T02:26:23.459Z,1015.84
2017-07-03T02:26:49.623Z,1015.82
2017-07-03T02:27:15.727Z,1015.83
2017-07-03T02:27:41.843Z,1015.83
2017-07-03T02:28:08.043Z,1015.84
2017-07-03T02:28:34.217Z,1015.82
2017-07-03T02:29:00.435Z,1015.81
2017-07-03T02:29:26.570Z,1015.81
2017-07-03T02:29:52.788Z,1015.8
2017-07-03T02:30:18.926Z,1015.79
2017-07-03T02:30:45.085Z,1015.81
2017-07-03T02:31:11.240Z,1015.78
2017-07-03T02:31:37.385Z,1015.78
2017-07-03T02:32:03.490Z,1015.82
2017-07-03T02:32:29.692Z,1015.78
2017-07-03T02:32:55.865Z,1015.81
2017-07-03T02:33:21.997Z,1015.82
2017-07-03T02:33:48.142Z,1015.81
2017-07-03T02:34:14.259Z,1015.85
2017-07-03T02:34:40.438Z,1015.82
2017-07-03T02:35:06.548Z,1015.83
2017-07-03T02:35:32.702Z,1015.86
2017-07-03T02:35:58.882Z,1015.83
2017-07-03T02:36:24.992Z,1015.82
2017-07-03T02:36:51.114Z,1015.83
2017-07-03T02:37:17.246Z,1015.84
2017-07-03T02:37:43.347Z,1015.83
2017-07-03T02:38:09.503Z,1015.84
2017-07-03T02:38:35.611Z,1015.81
2017-07-03T02:39:01.767Z,1015.81
2017-07-03T02:39:27.917Z,1015.82
2017-07-03T02:39:54.053Z,1015.84
2017-07-03T02:40:20.169Z,1015.87
2017-07-03T02:40:46.278Z,1015.84
2017-07-03T02:41:12.438Z,1015.83
2017-07-03T02:41:38.622Z,1015.84
2017-07-03T02:42:04.732Z,1015.85
2017-07-03T02:42:30.862Z,1015.87
2017-07-03T02:42:56.986Z,1015.86
2017-07-03T02:43:23.156Z,1015.89
2017-07-03T02:43:49.289Z,1015.87
2017-07-03T02:44:15.428Z,1015.9
2017-07-03T02:44:41.548Z,1015.88
2017-07-03T02:45:07.652Z,1015.88
2017-07-03T02:45:33.768Z,1015.93
2017-07-03T02:45:59.873Z,1015.88
2017-07-03T02:46:26.018Z,1015.88
2017-07-03T02:46:52.128Z,1015.9
2017-07-03T02:47:18.259Z,1015.88
2017-07-03T02:47:44.376Z,1015.84
2017-07-03T02:48:10.521Z,1015.89
2017-07-03T02:48:36.648Z,1015.86
2017-07-03T02:49:02.844Z,1015.85
2017-07-03T02:49:29.026Z,1015.84
2017-07-03T02:49:55.214Z,1015.86
2017-07-03T02:50:21.327Z,1015.86
2017-07-03T02:50:47.460Z,1015.85
2017-07-03T02:51:13.576Z,1015.86
2017-07-03T02:51:39.721Z,1015.86
2017-07-03T02:52:05.823Z,1015.85
2017-07-03T02:52:31.934Z,1015.83
2017-07-03T02:52:58.051Z,1015.88
2017-07-03T02:53:24.155Z,1015.92
2017-07-03T02:53:50.295Z,1015.88
2017-07-03T02:54:16.411Z,1015.89
2017-07-03T02:54:42.547Z,1015.9
2017-07-03T02:55:08.705Z,1015.93
2017-07-03T02:55:34.853Z,1015.89
2017-07-03T02:56:00.996Z,1015.91
2017-07-03T02:56:27.100Z,1015.9
2017-07-03T02:56:53.248Z,1015.91
2017-07-03T02:57:19.364Z,1015.9
2017-07-03T02:57:45.546Z,1015.91
2017-07-03T02:58:11.694Z,1015.94
2017-07-03T02:58:37.903Z,1015.93
2017-07-03T02:59:04.007Z,1015.87
2017-07-03T02:59:30.175Z,1015.92
2017-07-03T02:59:56.321Z,1015.94
2017-07-03T03:00:22.524Z,1015.88
2017-07-03T03:00:48.652Z,1015.94
2017-07-03T03:01:14.770Z,1015.93
2017-07-03T03:01:40.877Z,1015.92
2017-07-03T03:02:06.995Z,1015.92
2017-07-03T03:02:33.122Z,1015.98
2017-07-03T03:02:59.260Z,1015.96
2017-07-03T03:03:25.408Z,1015.94
2017-07-03T03:03:51.516Z,1015.94
2017-07-03T03:04:17.654Z,1015.93
2017-07-03T03:04:43.835Z,1015.95
2017-07-03T03:05:09.970Z,1015.89
2017-07-03T03:05:36.076Z,1015.91
2017-07-03T03:06:02.197Z,1015.94
2017-07-03T03:06:28.388Z,1015.92
2017-07-03T03:06:54.491Z,1015.9
2017-07-03T03:07:20.608Z,1015.92
2017-07-03T03:07:46.741Z,1015.91
2017-07-03T03:08:12.861Z,1015.94
2017-07-03T03:08:39.025Z,1015.91
2017-07-03T03:09:05.180Z,1015.96
2017-07-03T03:09:31.368Z,1015.91
2017-07-03T03:09:57.478Z,1015.89
2017-07-03T03:10:23.582Z,1015.91
2017-07-03T03:10:49.698Z,1015.9
2017-07-03T03:11:15.840Z,1015.92
2017-07-03T03:11:41.968Z,1015.9
2017-07-03T03:12:08.120Z,1015.91
2017-07-03T03:12:34.235Z,1015.88
2017-07-03T03:13:00.373Z,1015.89
2017-07-03T03:13:26.510Z,1015.89
2017-07-03T03:13:52.699Z,1015.9
2017-07-03T03:14:18.875Z,1015.88
2017-07-03T03:14:45.055Z,1015.87
2017-07-03T03:15:11.186Z,1015.88
2017-07-03T03:15:37.361Z,1015.88
2017-07-03T03:16:03.515Z,1015.88
2017-07-03T03:16:29.611Z,1015.85
2017-07-03T03:16:55.756Z,1015.88
2017-07-03T03:17:21.903Z,1015.89
2017-07-03T03:17:48.005Z,1015.89
2017-07-03T03:18:14.111Z,1015.89
2017-07-03T03:18:40.271Z,1015.9
2017-07-03T03:19:06.422Z,1015.88
2017-07-03T03:19:32.627Z,1015.88
2017-07-03T03:19:58.757Z,1015.89
2017-07-03T03:20:24.895Z,1015.91
2017-07-03T03:20:51.009Z,1015.91
2017-07-03T03:21:17.115Z,1015.89
2017-07-03T03:21:43.225Z,1015.88
2017-07-03T03:22:09.371Z,1015.93
2017-07-03T03:22:35.523Z,1015.95
2017-07-03T03:23:01.634Z,1015.95
2017-07-03T03:23:27.755Z,1015.92
2017-07-03T03:23:53.925Z,1015.9
2017-07-03T03:24:20.064Z,1015.96
2017-07-03T03:24:46.171Z,1015.97
2017-07-03T03:25:12.339Z,1015.95
2017-07-03T03:25:38.493Z,1015.94
2017-07-03T03:26:04.599Z,1015.95
2017-07-03T03:26:30.731Z,1015.94
2017-07-03T03:26:56.917Z,1015.95
2017-07-03T03:27:23.059Z,1015.97
2017-07-03T03:27:49.215Z,1015.98
2017-07-03T03:28:15.411Z,1015.98
2017-07-03T03:28:41.610Z,1016.03
2017-07-03T03:29:07.744Z,1016.03
2017-07-03T03:29:33.948Z,1016
2017-07-03T03:30:00.103Z,1016.03
2017-07-03T03:30:26.256Z,1016
2017-07-03T03:30:52.395Z,1016.04
2017-07-03T03:31:18.500Z,1016.05
2017-07-03T03:31:44.615Z,1016.03
2017-07-03T03:32:10.732Z,1016.05
2017-07-03T03:32:36.864Z,1016.05
2017-07-03T03:33:03.047Z,1016.04
2017-07-03T03:33:29.120Z,1016.03
2017-07-03T03:33:55.222Z,1016.06
2017-07-03T03:34:21.362Z,1016.04
2017-07-03T03:34:47.507Z,1016.03
2017-07-03T03:35:13.614Z,1015.99
2017-07-03T03:35:39.761Z,1016.02
2017-07-03T03:36:05.860Z,1016.02
2017-07-03T03:36:31.974Z,1016
2017-07-03T03:36:58.095Z,1016.02
2017-07-03T03:37:24.218Z,1016.06
2017-07-03T03:37:50.420Z,1016.07
2017-07-03T03:38:16.628Z,1016.05
2017-07-03T03:38:42.790Z,1016.04
2017-07-03T03:39:08.952Z,1016.06
2017-07-03T03:39:35.138Z,1016.05
2017-07-03T03:40:01.334Z,1016.02
2017-07-03T03:40:27.464Z,1016.02
2017-07-03T03:40:53.587Z,1015.95
2017-07-03T03:41:19.760Z,1016
2017-07-03T03:41:45.914Z,1016.06
2017-07-03T03:42:12.068Z,1016.04
2017-07-03T03:42:38.182Z,1016.02
2017-07-03T03:43:04.311Z,1016.04
2017-07-03T03:43:30.456Z,1016.04
2017-07-03T03:43:56.611Z,1016.02
2017-07-03T03:44:22.735Z,1016.04
2017-07-03T03:44:48.907Z,1016.06
2017-07-03T03:45:15.026Z,1016.06
2017-07-03T03:45:41.131Z,1016.07
2017-07-03T03:46:07.320Z,1016.08
2017-07-03T03:46:33.460Z,1016.07
2017-07-03T03:46:59.602Z,1016.07
2017-07-03T03:47:25.725Z,1016.05
2017-07-03T03:47:51.847Z,1016.1
2017-07-03T03:48:17.995Z,1016.07
2017-07-03T03:48:44.143Z,1016.06
2017-07-03T03:49:10.273Z,1016.09
2017-07-03T03:49:36.435Z,1016.09
2017-07-03T03:50:02.555Z,1016.07
2017-07-03T03:50:28.664Z,1016.09
2017-07-03T03:50:54.848Z,1016.1
2017-07-03T03:51:20.970Z,1016.1
2017-07-03T03:51:47.078Z,1016.08
2017-07-03T03:52:13.279Z,1016.11
2017-07-03T03:52:39.380Z,1016.1
2017-07-03T03:53:05.547Z,1016.11
2017-07-03T03:53:31.664Z,1016.13
2017-07-03T03:53:57.864Z,1016.11
2017-07-03T03:54:24.050Z,1016.08
2017-07-03T03:54:50.217Z,1016.11
2017-07-03T03:55:16.375Z,1016.12
2017-07-03T03:55:42.476Z,1016.1
2017-07-03T03:56:08.627Z,1016.09
2017-07-03T03:56:34.773Z,1016.08
2017-07-03T03:57:00.906Z,1016.11
2017-07-03T03:57:27.019Z,1016.14
2017-07-03T03:57:53.184Z,1016.1
2017-07-03T03:58:19.306Z,1016.09
2017-07-03T03:58:45.478Z,1016.1
2017-07-03T03:59:11.634Z,1016.1
2017-07-03T03:59:37.813Z,1016.1
2017-07-03T04:00:03.926Z,1016.09
2017-07-03T04:00:30.026Z,1016.11
2017-07-03T04:00:56.171Z,1016.08
2017-07-03T04:01:22.290Z,1016.08
2017-07-03T04:01:48.415Z,1016.08
2017-07-03T04:02:14.530Z,1016.06
2017-07-03T04:02:40.650Z,1016.09
2017-07-03T04:03:06.804Z,1016.06
2017-07-03T04:03:32.920Z,1016.09
2017-07-03T04:03:59.022Z,1016.05
2017-07-03T04:04:25.164Z,1016.13
2017-07-03T04:04:51.319Z,1016.07
2017-07-03T04:05:17.469Z,1016.09
2017-07-03T04:05:43.592Z,1016.1
2017-07-03T04:06:09.772Z,1016.07
2017-07-03T04:06:35.879Z,1016.09
2017-07-03T04:07:01.986Z,1016.07
2017-07-03T04:07:28.139Z,1016.08
2017-07-03T04:07:54.246Z,1016.08
2017-07-03T04:08:20.372Z,1016.05
2017-07-03T04:08:46.491Z,1016.11
2017-07-03T04:09:12.633Z,1016.12
2017-07-03T04:09:38.815Z,1016.09
2017-07-03T04:10:04.940Z,1016.13
2017-07-03T04:10:31.049Z,1016.09
2017-07-03T04:10:57.199Z,1016.11
2017-07-03T04:11:23.334Z,1016.12
2017-07-03T04:11:49.485Z,1016.11
2017-07-03T04:12:15.612Z,1016.12
2017-07-03T04:12:41.749Z,1016.12
2017-07-03T04:13:07.912Z,1016.18
2017-07-03T04:13:34.089Z,1016.16
2017-07-03T04:14:00.288Z,1016.16
2017-07-03T04:14:26.424Z,1016.15
2017-07-03T04:14:52.556Z,1016.17
2017-07-03T04:15:18.711Z,1016.12
2017-07-03T04:15:44.834Z,1016.15
2017-07-03T04:16:10.970Z,1016.08
2017-07-03T04:16:37.100Z,1016.13
2017-07-03T04:17:03.221Z,1016.09
2017-07-03T04:17:29.337Z,1016.13
2017-07-03T04:17:55.466Z,1016.14
2017-07-03T04:18:21.612Z,1016.12
2017-07-03T04:18:47.800Z,1016.13
2017-07-03T04:19:13.890Z,1016.14
2017-07-03T04:19:40.032Z,1016.11
2017-07-03T04:20:06.165Z,1016.11
2017-07-03T04:20:32.317Z,1016.12
2017-07-03T04:20:58.429Z,1016.11
2017-07-03T04:21:24.588Z,1016.13
2017-07-03T04:21:50.733Z,1016.15
2017-07-03T04:22:16.882Z,1016.11
2017-07-03T04:22:43.039Z,1016.16
2017-07-03T04:23:09.175Z,1016.12
2017-07-03T04:23:35.326Z,1016.19
2017-07-03T04:24:01.509Z,1016.17
2017-07-03T04:24:27.644Z,1016.12
2017-07-03T04:24:53.828Z,1016.13
2017-07-03T04:25:19.938Z,1016.15
2017-07-03T04:25:46.034Z,1016.2
2017-07-03T04:26:12.155Z,1016.15
2017-07-03T04:26:38.270Z,1016.16
2017-07-03T04:27:04.393Z,1016.13
2017-07-03T04:27:30.541Z,1016.16
2017-07-03T04:27:56.687Z,1016.18
2017-07-03T04:28:22.791Z,1016.17
2017-07-03T04:28:48.966Z,1016.18
2017-07-03T04:29:15.122Z,1016.19
2017-07-03T04:29:41.302Z,1016.14
2017-07-03T04:30:07.417Z,1016.19
2017-07-03T04:30:33.569Z,1016.2
2017-07-03T04:30:59.698Z,1016.19
2017-07-03T04:31:25.840Z,1016.15
2017-07-03T04:31:52.001Z,1016.14
2017-07-03T04:32:18.120Z,1016.14
2017-07-03T04:32:44.267Z,1016.14
2017-07-03T04:33:10.400Z,1016.13
2017-07-03T04:33:36.540Z,1016.12
2017-07-03T04:34:02.689Z,1016.16
2017-07-03T04:34:28.874Z,1016.14
2017-07-03T04:34:55.037Z,1016.12
2017-07-03T04:35:21.151Z,1016.12
2017-07-03T04:35:47.284Z,1016.09
2017-07-03T04:36:13.413Z,1016.09
2017-07-03T04:36:39.528Z,1016.04
2017-07-03T04:37:05.642Z,1016.05
2017-07-03T04:37:31.791Z,1016.05
2017-07-03T04:37:57.984Z,1016.05
2017-07-03T04:38:24.175Z,1016.06
2017-07-03T04:38:50.326Z,1016.03
2017-07-03T04:39:16.493Z,1016.05
2017-07-03T04:39:42.657Z,1016.01
2017-07-03T04:40:08.811Z,1016.03
2017-07-03T04:40:34.915Z,1016.04
2017-07-03T04:41:01.044Z,1016
2017-07-03T04:41:27.163Z,1016.02
2017-07-03T04:41:53.308Z,1016.06
2017-07-03T04:42:19.421Z,1016.05
2017-07-03T04:42:45.556Z,1016.04
2017-07-03T04:43:11.663Z,1016.04
2017-07-03T04:43:37.850Z,1016.02
2017-07-03T04:44:03.992Z,1016.05
2017-07-03T04:44:30.097Z,1016.04
2017-07-03T04:44:56.213Z,1016.07
2017-07-03T04:45:22.385Z,1016.11
2017-07-03T04:45:48.489Z,1016.16
2017-07-03T04:46:14.609Z,1016.16
2017-07-03T04:46:40.758Z,1016.15
2017-07-03T04:47:06.860Z,1016.12
2017-07-03T04:47:33.024Z,1016.14
2017-07-03T04:47:59.185Z,1016.14
2017-07-03T04:48:25.338Z,1016.16
2017-07-03T04:48:51.479Z,1016.13
2017-07-03T04:49:17.615Z,1016.12
2017-07-03T04:49:43.784Z,1016.07
2017-07-03T04:50:09.963Z,1016.12
2017-07-03T04:50:36.139Z,1016.09
2017-07-03T04:51:02.253Z,1016.07
2017-07-03T04:51:28.406Z,1016.1
2017-07-03T04:51:54.509Z,1016.08
2017-07-03T04:52:20.649Z,1016.12
2017-07-03T04:52:46.862Z,1016.13
2017-07-03T04:53:13.002Z,1016.12
2017-07-03T04:53:39.118Z,1016.13
2017-07-03T04:54:05.282Z,1016.14
2017-07-03T04:54:31.479Z,1016.12
2017-07-03T04:54:57.634Z,1016.11
2017-07-03T04:55:23.736Z,1016.11
2017-07-03T04:55:49.848Z,1016.12
2017-07-03T04:56:15.995Z,1016.12
2017-07-03T04:56:42.104Z,1016.13
2017-07-03T04:57:08.232Z,1016.09
2017-07-03T04:57:34.391Z,1016.11
2017-07-03T04:58:00.503Z,1016.12
2017-07-03T04:58:26.634Z,1016.17
2017-07-03T04:58:52.787Z,1016.17
2017-07-03T04:59:18.897Z,1016.2
2017-07-03T04:59:45.044Z,1016.21
2017-07-03T05:00:11.150Z,1016.18
2017-07-03T05:00:37.311Z,1016.18
2017-07-03T05:01:03.467Z,1016.19
2017-07-03T05:01:29.640Z,1016.2
2017-07-03T05:01:55.770Z,1016.19
2017-07-03T05:02:21.948Z,1016.19
2017-07-03T05:02:48.124Z,1016.16
2017-07-03T05:03:14.260Z,1016.17
2017-07-03T05:03:40.403Z,1016.18
2017-07-03T05:04:06.589Z,1016.11
2017-07-03T05:04:32.751Z,1016.15
2017-07-03T05:04:58.894Z,1016.15
2017-07-03T05:05:25.027Z,1016.15
2017-07-03T05:05:51.175Z,1016.1
2017-07-03T05:06:17.349Z,1016.08
2017-07-03T05:06:43.481Z,1016.12
2017-07-03T05:07:09.598Z,1016.08
2017-07-03T05:07:35.718Z,1016.15
2017-07-03T05:08:01.905Z,1016.18
2017-07-03T05:08:28.152Z,1016.13
2017-07-03T05:08:54.381Z,1016.18
2017-07-03T05:09:20.487Z,1016.24
2017-07-03T05:09:46.684Z,1016.19
2017-07-03T05:10:12.896Z,1016.27
2017-07-03T05:10:38.999Z,1016.23
2017-07-03T05:11:05.134Z,1016.19
2017-07-03T05:11:31.290Z,1016.16
2017-07-03T05:11:57.434Z,1016.19
2017-07-03T05:12:23.540Z,1016.18
2017-07-03T05:12:49.688Z,1016.18
2017-07-03T05:13:15.799Z,1016.2
2017-07-03T05:13:41.907Z,1016.17
2017-07-03T05:14:08.025Z,1016.15
2017-07-03T05:14:34.182Z,1016.11
2017-07-03T05:15:00.314Z,1016.11
2017-07-03T05:15:26.428Z,1016.05
2017-07-03T05:15:52.596Z,1016.07
2017-07-03T05:16:18.746Z,1016.03
2017-07-03T05:16:44.891Z,1016.04
2017-07-03T05:17:10.995Z,1016.03